Time;durP1;ratioP1;P1;durP2;ratioP2;P2;SDS_P1;SDS_P2;PMS_P1;PMS_P2;Temp;Humidity;BMP_temperature;BMP_pressure;BME280_temperature;BME280_humidity;BME280_pressure;Samples;Min_cycle;Max_cycle;Signal;HPM_P1;HPM_P2
2022/08/16 00:02:30;;;;;;;18.30;13.60;;;;;;;22.06;95.97;99256.03;4263785;28;20239;-43
2022/08/16 00:04:57;;;;;;;23.03;13.93;;;;;;;22.07;95.79;99260.38;4268791;28;20226;-44
2022/08/16 00:07:26;;;;;;;19.93;14.43;;;;;;;22.02;96.45;99251.34;4271579;28;22575;-44
2022/08/16 00:09:55;;;;;;;21.90;13.63;;;;;;;22.04;96.20;99254.63;4264878;28;20328;-44
2022/08/16 00:12:22;;;;;;;21.10;13.63;;;;;;;22.00;96.57;99256.19;4264158;28;21123;-43
2022/08/16 00:14:49;;;;;;;21.57;12.70;;;;;;;21.99;96.83;99257.28;4279677;28;21555;-44
2022/08/16 00:17:22;;;;;;;18.77;13.23;;;;;;;22.03;96.69;99255.69;4272839;28;21649;-43
2022/08/16 00:19:48;;;;;;;21.20;14.17;;;;;;;21.90;97.18;99252.28;4282965;28;20230;-44
2022/08/16 00:22:21;;;;;;;21.63;13.53;;;;;;;21.89;97.43;99258.78;4262240;28;23033;-45
2022/08/16 00:24:52;;;;;;;17.77;13.00;;;;;;;21.87;97.99;99263.59;4271281;28;20241;-46
2022/08/16 00:27:20;;;;;;;20.00;13.77;;;;;;;21.91;97.40;99259.34;4262970;28;23672;-44
2022/08/16 00:29:47;;;;;;;16.60;12.90;;;;;;;21.93;97.91;99259.88;4268681;28;25457;-44
2022/08/16 00:32:36;;;;;;;19.20;13.47;;;;;;;21.96;97.68;99257.75;4267567;28;20308;-44
2022/08/16 00:35:05;;;;;;;17.83;13.67;;;;;;;21.92;97.83;99255.56;4254380;28;20226;-45
2022/08/16 00:37:42;;;;;;;22.70;14.50;;;;;;;21.88;98.04;99265.25;4262338;28;20309;-43
2022/08/16 00:40:28;;;;;;;23.80;14.40;;;;;;;21.76;98.78;99264.50;4258813;28;20257;-44
2022/08/16 00:43:06;;;;;;;16.90;13.03;;;;;;;21.75;98.95;99271.00;4277259;28;20229;-44
2022/08/16 00:45:57;;;;;;;23.27;14.20;;;;;;;21.75;98.93;99271.00;4262860;28;25384;-46
2022/08/16 00:48:27;;;;;;;19.23;13.83;;;;;;;21.70;99.13;99265.50;4235004;28;20229;-43
2022/08/16 00:50:59;;;;;;;24.27;13.93;;;;;;;21.76;98.84;99267.22;4264745;28;20242;-45
2022/08/16 00:53:26;;;;;;;23.77;13.77;;;;;;;21.70;99.10;99273.63;4276044;28;20241;-45
2022/08/16 00:55:58;;;;;;;20.87;14.27;;;;;;;21.67;99.27;99268.69;4271494;28;22646;-44
2022/08/16 00:58:28;;;;;;;17.07;13.60;;;;;;;21.67;99.14;99268.69;4265053;28;20238;-47
2022/08/16 01:01:01;;;;;;;21.57;14.53;;;;;;;21.63;99.44;99272.97;4260332;28;20230;-46
2022/08/16 01:03:31;;;;;;;18.13;13.37;;;;;;;21.63;99.74;99267.53;4276767;28;20243;-43
2022/08/16 01:06:01;;;;;;;21.47;13.90;;;;;;;21.67;99.25;99268.69;4244294;28;23247;-44
2022/08/16 01:08:51;;;;;;;20.57;13.60;;;;;;;21.61;99.18;99264.25;4265786;28;22635;-45
2022/08/16 01:11:21;;;;;;;20.10;14.20;;;;;;;21.57;99.24;99268.53;4243975;28;20235;-43
2022/08/16 01:13:49;;;;;;;18.10;12.93;;;;;;;21.61;99.06;99264.25;4236872;28;20321;-46
2022/08/16 01:16:21;;;;;;;21.80;14.07;;;;;;;21.60;99.18;99260.75;4243673;28;20230;-45
2022/08/16 01:19:03;;;;;;;18.90;12.67;;;;;;;21.48;99.92;99263.53;4260198;28;21674;-49
2022/08/16 01:21:43;;;;;;;18.87;13.50;;;;;;;21.44;99.95;99258.84;4240402;28;20350;-44
2022/08/16 01:24:20;;;;;;;24.70;13.20;;;;;;;21.50;99.35;99263.28;4236137;28;22086;-65
2022/08/16 01:27:12;;;;;;;22.90;14.03;;;;;;;21.53;99.39;99256.56;4259048;28;20282;-67
2022/08/16 01:29:46;;;;;;;24.17;14.07;;;;;;;21.41;99.83;99254.75;4270171;28;21520;-65
2022/08/16 01:32:26;;;;;;;20.93;13.73;;;;;;;21.39;99.95;99254.13;4238372;28;20467;-64
2022/08/16 01:35:00;;;;;;;17.67;13.23;;;;;;;21.37;99.78;99253.56;4264953;28;20477;-66
2022/08/16 01:37:28;;;;;;;16.07;13.00;;;;;;;21.33;99.99;99246.16;4257133;28;20373;-65
2022/08/16 01:40:03;;;;;;;18.93;13.73;;;;;;;21.30;100.00;99242.06;4256394;28;20625;-64
2022/08/16 01:42:34;;;;;;;19.83;13.20;;;;;;;21.26;100.00;99249.88;4240234;28;23484;-64
2022/08/16 01:45:00;;;;;;;20.07;13.20;;;;;;;21.23;100.00;99247.63;4256793;28;20238;-64
2022/08/16 01:47:27;;;;;;;18.90;12.90;;;;;;;21.27;100.00;99239.88;4252951;28;22281;-65
2022/08/16 01:49:59;;;;;;;17.97;13.47;;;;;;;21.25;100.00;99228.47;4253259;28;20234;-66
2022/08/16 01:52:45;;;;;;;21.17;12.83;;;;;;;21.20;100.00;99225.66;4258578;28;21889;-64
2022/08/16 01:55:16;;;;;;;22.87;12.80;;;;;;;21.24;100.00;99234.94;4252421;28;20234;-65
2022/08/16 01:57:42;;;;;;;17.03;11.63;;;;;;;21.22;100.00;99237.06;4255685;28;20829;-64
2022/08/16 02:00:22;;;;;;;14.10;11.53;;;;;;;21.25;99.95;99233.88;4262858;28;20226;-67
2022/08/16 02:02:55;;;;;;;18.50;12.93;;;;;;;21.21;100.00;99224.59;4258236;28;25617;-66
2022/08/16 02:05:21;;;;;;;16.20;11.80;;;;;;;21.28;99.65;99227.97;4258850;28;20222;-64
2022/08/16 02:07:49;;;;;;;18.07;11.67;;;;;;;21.24;99.93;99229.53;4262550;28;21666;-66
2022/08/16 02:10:19;;;;;;;16.30;11.17;;;;;;;21.25;99.83;99223.03;4261713;28;20510;-66
2022/08/16 02:12:45;;;;;;;20.80;12.33;;;;;;;21.18;99.94;99216.97;4255718;28;20278;-65
2022/08/16 02:15:23;;;;;;;18.10;12.93;;;;;;;21.24;99.60;99222.22;4247761;28;20983;-67
2022/08/16 02:17:51;;;;;;;18.53;13.60;;;;;;;21.19;100.00;99218.59;4250488;28;20230;-64
2022/08/16 02:20:18;;;;;;;20.07;12.50;;;;;;;21.19;100.00;99216.75;4251909;28;21165;-67
2022/08/16 02:22:52;;;;;;;18.67;11.97;;;;;;;21.24;99.48;99213.31;4254045;28;20249;-65
2022/08/16 02:25:21;;;;;;;16.70;12.50;;;;;;;21.19;99.52;99208.63;4259047;28;20242;-68
2022/08/16 02:27:48;;;;;;;17.17;12.80;;;;;;;21.16;99.75;99208.28;4244400;28;20234;-66
2022/08/16 02:30:20;;;;;;;17.87;12.17;;;;;;;21.14;99.98;99205.00;4238702;28;22175;-65
2022/08/16 02:33:03;;;;;;;15.73;12.20;;;;;;;21.15;99.74;99217.47;4259124;28;22910;-64
2022/08/16 02:35:34;;;;;;;25.13;13.33;;;;;;;21.13;100.00;99215.00;4247290;28;20389;-67
2022/08/16 02:38:21;;;;;;;21.07;13.33;;;;;;;20.91;100.00;99216.75;4258840;28;20633;-63
2022/08/16 02:40:47;;;;;;;19.63;12.93;;;;;;;20.95;100.00;99220.63;4248036;28;20218;-66
2022/08/16 02:43:14;;;;;;;20.20;14.23;;;;;;;20.94;100.00;99206.28;4259450;28;20460;-64
2022/08/16 02:45:41;;;;;;;20.63;13.07;;;;;;;20.83;100.00;99212.56;4255799;28;20247;-65
2022/08/16 02:48:09;;;;;;;21.17;13.10;;;;;;;20.80;100.00;99210.34;4253606;28;20400;-64
2022/08/16 02:50:57;;;;;;;20.60;14.23;;;;;;;20.77;100.00;99205.44;4272681;28;20312;-64
2022/08/16 02:53:40;;;;;;;18.43;13.60;;;;;;;20.73;100.00;99212.38;4246961;28;20234;-65
2022/08/16 02:56:10;;;;;;;21.00;14.00;;;;;;;20.83;100.00;99205.28;4259432;28;20225;-65
2022/08/16 02:58:37;;;;;;;21.00;13.70;;;;;;;20.78;100.00;99207.88;4271928;28;20286;-66
2022/08/16 03:01:05;;;;;;;19.83;14.00;;;;;;;20.77;100.00;99208.16;4258970;28;20349;-66
2022/08/16 03:03:35;;;;;;;25.50;14.43;;;;;;;20.65;100.00;99209.00;4253871;28;20234;-63
2022/08/16 03:06:22;;;;;;;22.83;14.20;;;;;;;20.65;100.00;99210.91;4262867;28;20237;-65
2022/08/16 03:09:07;;;;;;;21.07;13.47;;;;;;;20.62;100.00;99203.25;4265339;28;20233;-66
2022/08/16 03:11:38;;;;;;;19.20;13.80;;;;;;;20.61;100.00;99210.53;4259615;28;20316;-65
2022/08/16 03:14:05;;;;;;;20.07;14.13;;;;;;;20.57;100.00;99213.97;4262409;28;20292;-65
2022/08/16 03:16:34;;;;;;;20.50;14.03;;;;;;;20.55;100.00;99206.06;4264384;28;20642;-63
2022/08/16 03:19:05;;;;;;;22.40;13.50;;;;;;;20.58;100.00;99205.63;4255408;28;20408;-66
2022/08/16 03:21:34;;;;;;;21.50;14.03;;;;;;;20.61;100.00;99205.13;4253657;28;20230;-64
2022/08/16 03:24:06;;;;;;;22.50;13.63;;;;;;;20.61;100.00;99209.72;4263377;28;20308;-67
2022/08/16 03:26:54;;;;;;;18.90;12.93;;;;;;;20.63;100.00;99210.31;4261752;28;20338;-63
2022/08/16 03:29:26;;;;;;;17.20;12.57;;;;;;;20.63;100.00;99211.13;4256120;28;20293;-65
2022/08/16 03:31:57;;;;;;;19.83;14.87;;;;;;;20.63;100.00;99221.94;4263976;28;20571;-65
2022/08/16 03:34:25;;;;;;;18.70;13.90;;;;;;;20.58;100.00;99219.16;4267993;28;23153;-64
2022/08/16 03:36:52;;;;;;;19.00;14.63;;;;;;;20.59;100.00;99223.47;4271049;28;20291;-66
2022/08/16 03:39:18;;;;;;;23.37;15.30;;;;;;;20.54;100.00;99223.34;4265558;28;20318;-67
2022/08/16 03:41:46;;;;;;;19.50;14.63;;;;;;;20.49;100.00;99231.38;4258305;28;20600;-64
2022/08/16 03:44:17;;;;;;;24.43;14.77;;;;;;;20.51;100.00;99236.50;4258877;28;21428;-64
2022/08/16 03:47:04;;;;;;;27.30;14.30;;;;;;;20.44;100.00;99228.56;4261113;28;20244;-64
2022/08/16 03:49:36;;;;;;;19.27;14.13;;;;;;;20.46;100.00;99218.31;4276382;28;20245;-65
2022/08/16 03:52:04;;;;;;;21.67;15.10;;;;;;;20.41;100.00;99229.03;4261046;28;20316;-65
2022/08/16 03:54:30;;;;;;;22.83;15.63;;;;;;;20.46;100.00;99226.41;4262298;28;20242;-64
2022/08/16 03:57:01;;;;;;;17.27;14.07;;;;;;;20.54;100.00;99238.75;4260874;28;20783;-65
2022/08/16 03:59:30;;;;;;;22.97;15.07;;;;;;;20.45;100.00;99241.00;4269087;28;20365;-66
2022/08/16 04:01:59;;;;;;;22.83;15.20;;;;;;;20.50;100.00;99238.41;4253534;28;20241;-66
2022/08/16 04:04:27;;;;;;;30.40;15.23;;;;;;;20.47;100.00;99243.47;4295593;28;20238;-66
2022/08/16 04:07:00;;;;;;;19.97;14.13;;;;;;;20.53;100.00;99237.91;4277575;28;21023;-65
2022/08/16 04:09:30;;;;;;;22.30;15.50;;;;;;;20.52;100.00;99246.28;4272586;28;21508;-65
2022/08/16 04:12:03;;;;;;;21.87;15.17;;;;;;;20.48;100.00;99240.50;4272661;28;20302;-66
2022/08/16 04:14:37;;;;;;;19.77;14.83;;;;;;;20.55;100.00;99243.09;4257938;28;21837;-66
2022/08/16 04:17:14;;;;;;;23.03;14.30;;;;;;;20.67;100.00;99241.19;4275814;28;20260;-66
2022/08/16 04:19:42;;;;;;;25.57;15.00;;;;;;;20.72;100.00;99245.88;4253326;28;21221;-65
2022/08/16 04:22:11;;;;;;;20.07;13.87;;;;;;;20.76;100.00;99247.84;4264137;28;20334;-65
2022/08/16 04:24:38;;;;;;;23.53;15.13;;;;;;;20.74;100.00;99255.38;4281466;28;20682;-65
2022/08/16 04:27:06;;;;;;;20.60;14.57;;;;;;;20.79;100.00;99258.22;4267528;28;20231;-69
2022/08/16 04:29:34;;;;;;;26.40;15.13;;;;;;;20.83;100.00;99250.41;4272747;28;20300;-67
2022/08/16 04:32:09;;;;;;;40.97;25.77;;;;;;;20.92;100.00;99251.69;4270669;28;20249;-67
2022/08/16 04:34:39;;;;;;;25.10;17.97;;;;;;;20.99;100.00;99255.06;4243244;28;20234;-66
2022/08/16 04:37:06;;;;;;;24.03;15.37;;;;;;;21.09;100.00;99257.13;4244563;28;20400;-66
2022/08/16 04:39:35;;;;;;;21.00;14.73;;;;;;;21.17;100.00;99258.63;4271431;28;21674;-64
2022/08/16 04:42:13;;;;;;;22.80;13.30;;;;;;;21.27;100.00;99259.63;4268358;28;21182;-64
2022/08/16 04:44:39;;;;;;;23.60;13.97;;;;;;;21.29;100.00;99260.19;4262453;28;20624;-64
2022/08/16 04:47:27;;;;;;;20.40;14.63;;;;;;;21.34;99.22;99262.19;4244341;28;20226;-65
2022/08/16 04:50:00;;;;;;;24.10;13.77;;;;;;;21.28;99.42;99263.13;4248774;28;20232;-65
2022/08/16 04:52:28;;;;;;;22.90;14.47;;;;;;;21.31;99.70;99265.38;4274549;28;20302;-65
2022/08/16 04:55:02;;;;;;;21.20;14.80;;;;;;;21.20;99.94;99258.13;4273592;28;25923;-66
2022/08/16 04:57:29;;;;;;;18.70;14.10;;;;;;;21.21;99.77;99267.88;4254393;28;21912;-66
2022/08/16 04:59:55;;;;;;;23.47;14.20;;;;;;;21.22;99.87;99264.94;4241360;28;20241;-66
2022/08/16 05:02:22;;;;;;;18.03;13.67;;;;;;;21.34;99.26;99270.28;4262318;28;20694;-66
2022/08/16 05:05:09;;;;;;;22.73;13.33;;;;;;;21.37;98.92;99268.97;4285735;28;20230;-65
2022/08/16 05:07:43;;;;;;;27.97;14.67;;;;;;;21.38;98.23;99273.34;4270392;28;20334;-66
2022/08/16 05:10:27;;;;;;;19.73;13.17;;;;;;;21.41;97.78;99276.41;4268765;28;20238;-65
2022/08/16 05:12:55;;;;;;;20.20;13.17;;;;;;;21.50;97.77;99274.13;4265865;28;20610;-65
2022/08/16 05:15:22;;;;;;;20.33;13.50;;;;;;;21.65;96.68;99281.66;4272857;28;20230;-64
2022/08/16 05:17:50;;;;;;;16.30;13.03;;;;;;;21.69;96.75;99278.22;4241507;28;25321;-66
2022/08/16 05:20:26;;;;;;;19.67;14.50;;;;;;;21.77;95.75;99276.16;4277444;28;21115;-66
2022/08/16 05:23:10;;;;;;;20.13;13.63;;;;;;;21.96;94.85;99287.56;4261107;28;21621;-66
2022/08/16 05:25:39;;;;;;;20.73;12.93;;;;;;;22.07;93.83;99286.63;4263795;28;20275;-65
2022/08/16 05:28:15;;;;;;;21.63;13.20;;;;;;;22.16;92.94;99293.28;4258632;28;21197;-67
2022/08/16 05:30:42;;;;;;;18.97;14.13;;;;;;;22.30;92.62;99288.34;4270744;28;20640;-65
2022/08/16 05:33:09;;;;;;;19.83;13.13;;;;;;;22.45;91.70;99287.72;4254657;28;20234;-66
2022/08/16 05:35:42;;;;;;;21.00;12.93;;;;;;;22.63;90.56;99284.72;4269789;28;23591;-65
2022/08/16 05:38:09;;;;;;;19.63;12.83;;;;;;;22.62;89.74;99274.97;4263287;28;20292;-65
2022/08/16 05:40:59;;;;;;;24.40;12.67;;;;;;;22.53;87.97;99274.56;4263053;28;20314;-66
2022/08/16 05:43:27;;;;;;;22.10;11.67;;;;;;;22.58;89.17;99290.09;4267701;28;20238;-68
2022/08/16 05:46:10;;;;;;;21.80;11.77;;;;;;;22.57;88.50;99283.03;4259299;28;20309;-70
2022/08/16 05:48:56;;;;;;;17.57;11.63;;;;;;;22.59;86.96;99280.06;4254304;28;20738;-71
2022/08/16 05:51:29;;;;;;;16.60;10.90;;;;;;;22.69;86.55;99280.19;4250763;28;20232;-66
2022/08/16 05:54:05;;;;;;;18.83;11.17;;;;;;;22.77;86.14;99277.84;4266399;28;20336;-66
2022/08/16 05:56:33;;;;;;;18.57;10.67;;;;;;;22.89;85.33;99276.88;4253599;28;21104;-69
2022/08/16 05:59:03;;;;;;;19.27;10.80;;;;;;;22.93;83.99;99280.72;4266961;28;23649;-67
2022/08/16 06:01:34;;;;;;;20.40;10.77;;;;;;;22.92;83.22;99287.22;4271352;28;20680;-63
2022/08/16 06:04:05;;;;;;;15.33;10.93;;;;;;;22.80;83.58;99286.53;4264096;28;20449;-67
2022/08/16 06:06:52;;;;;;;17.57;10.60;;;;;;;22.75;83.72;99279.16;4270139;28;21770;-68
2022/08/16 06:09:23;;;;;;;22.43;11.00;;;;;;;22.84;84.13;99284.97;4269534;28;20236;-67
2022/08/16 06:11:51;;;;;;;21.57;10.97;;;;;;;22.91;84.71;99289.13;4282061;28;20238;-68
2022/08/16 06:14:18;;;;;;;20.20;11.50;;;;;;;22.99;83.43;99290.59;4251153;28;22249;-67
2022/08/16 06:16:46;;;;;;;19.30;10.57;;;;;;;22.97;83.49;99292.72;4256054;28;20325;-67
2022/08/16 06:19:16;;;;;;;18.97;10.47;;;;;;;22.99;83.25;99285.16;4262056;28;20229;-66
2022/08/16 06:21:44;;;;;;;16.67;9.90;;;;;;;22.88;82.63;99288.81;4267286;28;20292;-69
2022/08/16 06:24:20;;;;;;;19.40;10.23;;;;;;;22.96;81.52;99288.34;4263231;28;20249;-68
2022/08/16 06:27:06;;;;;;;13.43;10.23;;;;;;;22.98;82.15;99291.63;4284940;28;20301;-50
2022/08/16 06:29:33;;;;;;;14.37;10.50;;;;;;;23.08;81.29;99294.47;4266527;28;21491;-50
2022/08/16 06:32:01;;;;;;;17.33;10.40;;;;;;;23.02;82.13;99303.66;4246233;28;20330;-53
2022/08/16 06:34:30;;;;;;;19.27;10.23;;;;;;;23.09;80.78;99289.91;4261672;28;20294;-50
2022/08/16 06:37:16;;;;;;;17.30;9.77;;;;;;;23.15;80.58;99294.28;4264132;28;21117;-52
2022/08/16 06:39:43;;;;;;;19.80;10.30;;;;;;;23.11;79.87;99302.13;4267199;28;20329;-48
2022/08/16 06:42:15;;;;;;;15.57;10.33;;;;;;;23.23;79.87;99301.97;4267359;28;20276;-51
2022/08/16 06:44:44;;;;;;;20.57;10.93;;;;;;;23.27;80.74;99304.97;4272832;28;20683;-56
2022/08/16 06:47:11;;;;;;;14.63;10.57;;;;;;;23.41;78.73;99306.22;4273388;28;20237;-67
2022/08/16 06:49:42;;;;;;;17.13;9.70;;;;;;;23.48;79.38;99298.66;4279671;28;21259;-67
2022/08/16 06:52:18;;;;;;;22.13;11.00;;;;;;;23.70;78.15;99305.94;4267239;28;20286;-66
2022/08/16 06:55:06;;;;;;;19.00;11.67;;;;;;;23.97;77.50;99300.47;4284167;28;20241;-65
2022/08/16 06:57:39;;;;;;;19.57;10.07;;;;;;;23.98;77.32;99305.66;4259077;28;22911;-65
2022/08/16 07:00:12;;;;;;;15.50;9.40;;;;;;;24.20;75.48;99318.28;4252776;28;21626;-64
2022/08/16 07:02:51;;;;;;;18.03;10.40;;;;;;;24.41;76.34;99313.78;4274888;28;20260;-62
2022/08/16 07:05:19;;;;;;;17.20;9.73;;;;;;;24.63;77.39;99316.38;4269096;28;20823;-66
2022/08/16 07:07:52;;;;;;;22.50;12.67;;;;;;;24.77;75.09;99313.97;4261819;28;20360;-63
2022/08/16 07:10:20;;;;;;;16.93;10.00;;;;;;;25.06;73.38;99311.63;4274700;28;22654;-70
2022/08/16 07:12:52;;;;;;;20.03;10.07;;;;;;;25.26;72.52;99310.88;4290894;28;21542;-65
2022/08/16 07:15:37;;;;;;;18.97;10.03;;;;;;;25.64;71.46;99317.75;4292568;28;20297;-63
2022/08/16 07:18:21;;;;;;;16.43;10.20;;;;;;;26.47;67.20;99327.50;4284667;28;22658;-63
2022/08/16 07:20:52;;;;;;;14.13;9.00;;;;;;;27.57;61.68;99333.03;4263980;28;22402;-71
2022/08/16 07:23:20;;;;;;;19.20;10.43;;;;;;;29.10;55.61;99338.09;4285043;28;21155;-65
2022/08/16 07:26:05;;;;;;;21.87;9.63;;;;;;;30.18;50.58;99351.81;4267664;28;20313;-65
2022/08/16 07:28:31;;;;;;;14.73;8.90;;;;;;;31.01;46.37;99359.31;4303122;28;20247;-76
2022/08/16 07:31:01;;;;;;;13.40;8.93;;;;;;;31.33;45.06;99359.16;4260971;28;22101;-74
2022/08/16 07:33:36;;;;;;;14.60;8.93;;;;;;;32.29;42.26;99350.84;4282913;28;20260;-75
2022/08/16 07:36:21;;;;;;;15.93;8.40;;;;;;;33.21;39.24;99354.56;4302889;28;20449;-77
2022/08/16 07:38:48;;;;;;;16.88;9.25;;;;;;;34.25;37.43;99355.66;4321084;28;20893;-74
2022/08/16 07:41:16;;;;;;;14.52;8.57;;;;;;;34.69;35.84;99356.34;4297072;28;22894;-74
2022/08/16 07:43:45;;;;;;;18.38;8.80;;;;;;;35.12;33.66;99362.78;4296176;28;22860;-74
2022/08/16 07:46:13;;;;;;;15.90;7.88;;;;;;;35.68;33.28;99368.91;4257168;28;21262;-75
2022/08/16 07:49:00;;;;;;;17.77;8.45;;;;;;;35.59;33.04;99357.06;4287325;28;20294;-73
2022/08/16 07:51:31;;;;;;;12.55;8.95;;;;;;;35.41;33.71;99359.97;4275279;28;22207;-76
2022/08/16 07:54:07;;;;;;;14.52;7.85;;;;;;;34.98;34.96;99351.94;4275110;28;20301;-74
2022/08/16 07:56:36;;;;;;;17.10;8.27;;;;;;;33.54;39.01;99342.25;4264492;28;20306;-75
2022/08/16 07:59:04;;;;;;;20.30;10.70;;;;;;;32.73;40.56;99332.53;4260189;28;20233;-74
2022/08/16 08:01:32;;;;;;;18.42;9.20;;;;;;;31.83;43.12;99325.25;4294514;28;20239;-75
2022/08/16 08:04:02;;;;;;;13.45;8.15;;;;;;;32.13;41.00;99320.13;4284211;28;20244;-73
2022/08/16 08:06:31;;;;;;;14.32;9.02;;;;;;;31.26;44.59;99324.97;4290570;28;20275;-74
2022/08/16 08:08:59;;;;;;;17.52;8.70;;;;;;;31.17;45.58;99324.06;4292072;28;20371;-73
2022/08/16 08:11:27;;;;;;;16.33;8.68;;;;;;;31.44;43.55;99328.69;4354898;28;20304;-73
2022/08/16 08:13:58;;;;;;;23.85;8.82;;;;;;;31.44;41.97;99332.25;4311536;28;20239;-75
2022/08/16 08:16:34;;;;;;;13.43;8.05;;;;;;;31.53;40.91;99335.88;4312371;28;21666;-74
2022/08/16 08:19:02;;;;;;;15.20;8.13;;;;;;;31.53;41.54;99338.63;4299200;28;20278;-75
2022/08/16 08:21:31;;;;;;;13.57;8.63;;;;;;;31.23;43.45;99328.31;4319666;28;21324;-74
2022/08/16 08:24:20;;;;;;;18.08;8.20;;;;;;;30.89;44.31;99327.69;4266149;28;20563;-76
2022/08/16 08:26:47;;;;;;;14.57;9.05;;;;;;;30.47;47.38;99326.03;4286532;28;23813;-73
2022/08/16 08:29:17;;;;;;;16.58;8.32;;;;;;;30.65;47.13;99327.06;4305966;28;20747;-75
2022/08/16 08:32:03;;;;;;;14.98;8.73;;;;;;;30.54;47.22;99331.13;4320637;28;20450;-73
2022/08/16 08:34:50;;;;;;;16.17;11.32;;;;;;;30.06;48.59;99322.09;4267211;28;20245;-75
2022/08/16 08:37:16;;;;;;;18.93;8.67;;;;;;;29.62;48.81;99325.28;4259618;28;20288;-74
2022/08/16 08:39:43;;;;;;;15.90;8.55;;;;;;;29.38;50.07;99323.44;4331514;28;21613;-73
2022/08/16 08:42:20;;;;;;;21.13;9.23;;;;;;;29.04;51.16;99321.69;4287814;28;20288;-74
2022/08/16 08:44:52;;;;;;;16.13;9.00;;;;;;;28.96;52.45;99319.63;4298884;28;20230;-74
2022/08/16 08:47:19;;;;;;;14.57;9.10;;;;;;;29.12;51.68;99330.41;4293134;28;22386;-76
2022/08/16 08:49:48;;;;;;;12.23;8.60;;;;;;;28.75;50.95;99329.19;4291929;28;22897;-75
2022/08/16 08:52:21;;;;;;;21.13;9.10;;;;;;;28.62;52.91;99328.81;4309482;28;20303;-75
2022/08/16 08:55:07;;;;;;;15.93;8.40;;;;;;;28.77;51.90;99336.00;4307250;28;20232;-74
2022/08/16 08:57:41;;;;;;;18.03;8.43;;;;;;;28.85;51.43;99329.09;4311726;28;20240;-73
2022/08/16 09:00:11;;;;;;;13.80;8.90;;;;;;;28.87;51.14;99324.13;4284576;28;20270;-74
2022/08/16 09:02:43;;;;;;;18.63;9.53;;;;;;;28.80;52.40;99323.69;4295134;28;21372;-75
2022/08/16 09:05:18;;;;;;;18.67;8.40;;;;;;;29.09;52.36;99326.31;4292483;28;20404;-75
2022/08/16 09:07:48;;;;;;;15.33;8.60;;;;;;;29.66;50.42;99329.03;4323818;28;20346;-77
2022/08/16 09:10:28;;;;;;;18.75;9.57;;;;;;;29.99;49.31;99337.31;4271520;28;20233;-75
2022/08/16 09:12:56;;;;;;;24.73;9.63;;;;;;;30.26;50.01;99337.41;4270414;28;21516;-75
2022/08/16 09:15:24;;;;;;;13.33;7.77;;;;;;;30.15;46.60;99335.13;4277828;28;20230;-74
2022/08/16 09:18:00;;;;;;;12.05;7.85;;;;;;;30.08;46.93;99335.50;4289908;28;20233;-77
2022/08/16 09:20:47;;;;;;;14.77;8.10;;;;;;;29.92;47.21;99331.41;4306377;28;20328;-77
2022/08/16 09:23:27;;;;;;;17.63;7.57;;;;;;;29.51;47.51;99343.00;4247824;28;22959;-75
2022/08/16 09:25:54;;;;;;;16.77;8.33;;;;;;;29.48;48.35;99343.59;4254219;28;20433;-74
2022/08/16 09:28:20;;;;;;;13.63;8.37;;;;;;;29.45;48.13;99342.25;4263249;28;20235;-74
2022/08/16 09:31:08;;;;;;;17.07;8.63;;;;;;;29.61;48.63;99332.69;4292763;28;21170;-73
2022/08/16 09:33:36;;;;;;;16.50;8.82;;;;;;;29.39;50.46;99330.56;4301971;28;22137;-73
2022/08/16 09:36:06;;;;;;;20.83;9.67;;;;;;;29.08;51.06;99329.34;4289574;28;21465;-73
2022/08/16 09:38:53;;;;;;;20.70;8.90;;;;;;;29.17;51.07;99327.59;4279220;28;20648;-76
2022/08/16 09:41:25;;;;;;;20.52;9.68;;;;;;;29.28;50.22;99340.03;4300204;28;20230;-74
2022/08/16 09:43:53;;;;;;;20.00;8.60;;;;;;;29.13;49.15;99332.06;4274337;28;20490;-76
2022/08/16 09:46:29;;;;;;;16.90;8.80;;;;;;;29.16;49.37;99342.41;4297537;28;20373;-74
2022/08/16 09:49:14;;;;;;;19.45;9.02;;;;;;;29.51;49.08;99337.53;4271416;28;21110;-74
2022/08/16 09:51:41;;;;;;;22.10;8.67;;;;;;;29.75;47.50;99349.22;4262722;28;20242;-74
2022/08/16 09:54:12;;;;;;;16.93;9.03;;;;;;;29.44;49.86;99343.38;4265317;28;20388;-75
2022/08/16 09:56:42;;;;;;;15.57;8.13;;;;;;;29.28;49.44;99341.97;4279773;28;21495;-74
2022/08/16 09:59:20;;;;;;;20.93;8.40;;;;;;;28.97;50.16;99347.84;4276942;28;20305;-75
2022/08/16 10:01:47;;;;;;;21.67;7.83;;;;;;;28.74;51.53;99352.22;4278005;28;20236;-74
2022/08/16 10:04:15;;;;;;;17.97;8.27;;;;;;;28.95;51.72;99352.78;4276277;28;20486;-74
2022/08/16 10:07:02;;;;;;;16.10;8.10;;;;;;;29.08;51.68;99360.31;4283394;28;20303;-74
2022/08/16 10:09:41;;;;;;;20.10;8.93;;;;;;;29.05;51.90;99361.69;4249655;28;20375;-73
2022/08/16 10:15:10;;;;;;;22.33;9.40;;;;;;;28.45;53.94;99361.28;4272957;28;20328;-75
2022/08/16 10:17:44;;;;;;;16.60;8.93;;;;;;;28.55;54.70;99355.72;4281657;28;20225;-73
2022/08/16 10:20:29;;;;;;;19.53;8.40;;;;;;;28.78;52.89;99361.50;4263424;28;22061;-75
2022/08/16 10:22:56;;;;;;;22.17;8.10;;;;;;;28.74;51.98;99358.50;4272269;28;21610;-76
2022/08/16 10:25:31;;;;;;;10.73;7.37;;;;;;;28.73;51.74;99369.75;4258163;28;21594;-76
2022/08/16 10:28:19;;;;;;;16.20;7.50;;;;;;;28.66;53.07;99363.81;4249569;28;20381;-74
2022/08/16 10:30:54;;;;;;;15.03;7.30;;;;;;;28.98;51.10;99374.91;4267839;28;22251;-74
2022/08/16 10:33:25;;;;;;;10.73;7.80;;;;;;;29.22;49.25;99376.84;4271374;28;20243;-77
2022/08/16 10:35:55;;;;;;;16.17;7.67;;;;;;;29.46;50.36;99374.06;4261254;28;22947;-75
2022/08/16 10:38:29;;;;;;;11.27;7.03;;;;;;;29.54;48.78;99378.03;4274378;28;20311;-72
2022/08/16 10:40:59;;;;;;;16.40;7.47;;;;;;;29.13;49.19;99375.88;4275298;28;20400;-73
2022/08/16 10:43:26;;;;;;;17.85;7.93;;;;;;;29.03;50.83;99383.09;4288281;28;21377;-74
2022/08/16 10:45:57;;;;;;;13.23;7.57;;;;;;;29.04;48.92;99386.63;4261508;28;21110;-74
2022/08/16 10:48:27;;;;;;;15.33;7.60;;;;;;;28.68;50.45;99386.22;4259066;28;25610;-74
2022/08/16 10:50:57;;;;;;;14.27;7.13;;;;;;;28.52;49.75;99388.34;4274511;28;20238;-76
2022/08/16 10:53:26;;;;;;;12.02;7.43;;;;;;;28.47;51.41;99386.47;4269054;28;22832;-74
2022/08/16 10:56:05;;;;;;;13.50;7.50;;;;;;;28.60;51.94;99384.97;4254343;28;20235;-77
2022/08/16 10:58:53;;;;;;;14.53;9.30;;;;;;;28.27;55.19;99381.16;4278499;28;20242;-73
2022/08/16 11:01:20;;;;;;;20.43;8.97;;;;;;;28.16;55.97;99380.44;4270632;28;20238;-75
2022/08/16 11:04:07;;;;;;;14.43;8.80;;;;;;;27.93;56.92;99381.97;4248722;28;21414;-69
2022/08/16 11:06:54;;;;;;;19.70;9.63;;;;;;;27.75;57.86;99387.00;4266356;28;20337;-75
2022/08/16 11:09:41;;;;;;;14.70;9.03;;;;;;;27.86;58.52;99382.34;4268816;28;20395;-75
2022/08/16 11:12:11;;;;;;;11.80;8.53;;;;;;;27.89;57.17;99383.69;4258203;28;20229;-74
2022/08/16 11:14:40;;;;;;;16.57;9.27;;;;;;;28.12;56.95;99385.66;4268293;28;20264;-72
2022/08/16 11:17:27;;;;;;;16.80;7.77;;;;;;;28.36;54.73;99393.13;4275915;28;20376;-75
2022/08/16 11:19:58;;;;;;;11.17;7.23;;;;;;;28.32;54.16;99395.59;4278546;28;20404;-71
2022/08/16 11:22:46;;;;;;;14.23;7.27;;;;;;;28.05;53.50;99389.81;4272091;28;20277;-71
2022/08/16 11:25:17;;;;;;;14.25;7.18;;;;;;;27.92;54.02;99391.31;4247877;28;20226;-72
2022/08/16 11:28:05;;;;;;;12.63;7.13;;;;;;;28.05;53.72;99401.59;4291575;28;23196;-75
2022/08/16 11:30:34;;;;;;;15.80;7.10;;;;;;;28.30;52.11;99399.72;4273544;28;20229;-76
2022/08/16 11:33:04;;;;;;;21.13;8.23;;;;;;;28.26;54.25;99401.41;4255936;28;21835;-71
2022/08/16 11:35:32;;;;;;;13.27;7.90;;;;;;;28.09;53.58;99397.16;4252249;28;21807;-73
2022/08/16 11:38:22;;;;;;;14.73;7.90;;;;;;;28.25;53.67;99391.56;4256437;28;22718;-71
2022/08/16 11:41:08;;;;;;;15.60;7.80;;;;;;;28.44;54.13;99391.66;4258919;28;20234;-74
2022/08/16 11:43:36;;;;;;;14.27;7.73;;;;;;;28.35;52.94;99394.19;4259788;28;20236;-73
2022/08/16 11:46:08;;;;;;;12.80;8.03;;;;;;;28.19;54.63;99390.81;4266028;28;20232;-79
2022/08/16 11:48:55;;;;;;;14.10;7.47;;;;;;;28.03;54.45;99392.84;4279919;28;20547;-71
2022/08/16 11:51:22;;;;;;;18.30;8.87;;;;;;;27.84;56.07;99389.16;4262393;28;22211;-74